METAR Data
IDs: Format: Raw Decoded Include TAF

Data at: 0727 UTC 03 Aug 2021

KPVF 030715Z AUTO 00000KT 10SM CLR 24/03 A3011 RMK AO1
KPVF 030655Z AUTO 00000KT 10SM CLR 25/03 A3011 RMK AO1
KPVF 030635Z AUTO 00000KT 10SM CLR 25/03 A3010 RMK AO1
KPVF 030615Z AUTO 00000KT 10SM CLR 27/03 A3010 RMK AO1
KPVF 030555Z AUTO 00000KT 10SM CLR 27/03 A3011 RMK AO1
KPVF 030535Z AUTO 01003KT 10SM CLR 27/02 A3012 RMK AO1
KPVF 030515Z AUTO 05004KT 10SM CLR 27/00 A3012 RMK AO1
KPVF 030455Z AUTO 00000KT 10SM CLR 27/00 A3012 RMK AO1
KPVF 030435Z AUTO 00000KT 10SM CLR 27/00 A3012 RMK AO1
KPVF 030415Z AUTO 00000KT 10SM CLR 27/00 A3013 RMK AO1
KPVF 030355Z AUTO 00000KT 10SM CLR 27/00 A3013 RMK AO1
KPVF 030335Z AUTO 00000KT 10SM CLR 28/01 A3013 RMK AO1
KPVF 030315Z AUTO 30003KT 10SM CLR 28/01 A3013 RMK AO1
KPVF 030255Z AUTO 00000KT 10SM CLR 28/02 A3013 RMK AO1
KPVF 030235Z AUTO 00000KT 10SM CLR 29/02 A3013 RMK AO1
KPVF 030215Z AUTO 29004KT 10SM CLR 29/02 A3013 RMK AO1
KPVF 030155Z AUTO 27005KT 10SM CLR 30/02 A3013 RMK AO1
KPVF 030135Z AUTO 28006KT 10SM CLR 30/03 A3013 RMK AO1
KPVF 030115Z AUTO 28005KT 10SM CLR 30/03 A3013 RMK AO1
KPVF 030055Z AUTO 27007KT 10SM CLR 32/03 A3014 RMK AO1
KPVF 030035Z AUTO 27004KT 10SM CLR 32/02 A3014 RMK AO1
KPVF 030015Z AUTO 23003KT 10SM CLR 33/02 A3014 RMK AO1
KPVF 022355Z AUTO 23006KT 10SM CLR 33/02 A3014 RMK AO1
KPVF 022335Z AUTO 22005KT 10SM CLR 33/02 A3014 RMK AO1
KPVF 022315Z AUTO 29006KT 260V330 10SM CLR 32/03 A3015 RMK AO1
KPVF 022255Z AUTO 29006KT 10SM CLR 32/03 A3016 RMK AO1
KPVF 022235Z AUTO 23005KT 10SM CLR 32/03 A3016 RMK AO1
KPVF 022215Z AUTO 28008KT 10SM CLR 32/03 A3016 RMK AO1
KPVF 022155Z AUTO 27006KT 10SM CLR 33/03 A3017 RMK AO1
KPVF 022135Z AUTO 23007KT 10SM CLR 32/04 A3017 RMK AO1
KPVF 022115Z AUTO 24006KT 220V280 10SM CLR 32/04 A3017 RMK AO1
KPVF 022055Z AUTO 21006KT 10SM CLR 32/04 A3018 RMK AO1
KPVF 022035Z AUTO 17005KT 10SM CLR 32/05 A3018 RMK AO1
KPVF 022015Z AUTO 21004KT 10SM CLR 32/04 A3018 RMK AO1
KPVF 021955Z AUTO 23008KT 210V360 10SM CLR 31/04 A3018 RMK AO1
KPVF 021935Z AUTO 23009KT 180V260 10SM CLR 32/04 A3018 RMK AO1
KPVF 021915Z AUTO 25003KT 10SM CLR 31/04 A3018 RMK AO1
KPVF 021855Z AUTO 22008KT 10SM CLR 31/04 A3018 RMK AO1
KPVF 021835Z AUTO 24004KT 10SM CLR 30/05 A3018 RMK AO1
KPVF 021815Z AUTO 21005KT 10SM CLR 30/05 A3018 RMK AO1
KPVF 021755Z AUTO 23006KT 10SM CLR 29/05 A3018 RMK AO1
KPVF 021735Z AUTO 24004KT 10SM CLR 28/07 A3018 RMK AO1
KPVF 021715Z AUTO 23004KT 10SM CLR 28/07 A3018 RMK AO1
KPVF 021655Z AUTO 23004KT 10SM CLR 27/07 A3018 RMK AO1
KPVF 021635Z AUTO 19004KT 10SM CLR 27/06 A3018 RMK AO1
KPVF 021615Z AUTO 20003KT 10SM CLR 26/06 A3018 RMK AO1
KPVF 021555Z AUTO 18004KT 10SM CLR 25/06 A3018 RMK AO1
KPVF 021535Z AUTO 17004KT 10SM CLR 25/06 A3018 RMK AO1
KPVF 021515Z AUTO 17004KT 10SM CLR 25/06 A3018 RMK AO1
KPVF 021455Z AUTO 16004KT 10SM CLR 25/05 A3017 RMK AO1
KPVF 021435Z AUTO 16003KT 10SM CLR 24/05 A3017 RMK AO1
KPVF 021415Z AUTO 13003KT 10SM CLR 24/04 A3016 RMK AO1
KPVF 021355Z AUTO 09003KT 10SM CLR 24/04 A3015 RMK AO1
KPVF 021335Z AUTO 11003KT 10SM CLR 23/04 A3015 RMK AO1
KPVF 021315Z AUTO 10005KT 10SM CLR 22/04 A3014 RMK AO1
KPVF 021255Z AUTO 09006KT 10SM CLR 24/04 A3013 RMK AO1
KPVF 021235Z AUTO 10004KT 10SM CLR 24/04 A3013 RMK AO1
KPVF 021215Z AUTO 10004KT 10SM CLR 24/04 A3013 RMK AO1
KPVF 021155Z AUTO 10003KT 10SM CLR 23/04 A3013 RMK AO1
KPVF 021135Z AUTO 02003KT 10SM CLR 21/04 A3013 RMK AO1
KPVF 021115Z AUTO 35006KT 10SM CLR 20/04 A3012 RMK AO1
KPVF 021055Z AUTO 01004KT 10SM CLR 20/04 A3012 RMK AO1
KPVF 021035Z AUTO 34007KT 10SM CLR 20/04 A3012 RMK AO1
KPVF 021015Z AUTO 34007KT 10SM CLR 20/04 A3012 RMK AO1
KPVF 020955Z AUTO 34007KT 10SM CLR 19/05 A3012 RMK AO1
KPVF 020935Z AUTO 34007KT 10SM CLR 20/05 A3013 RMK AO1
KPVF 020915Z AUTO 33005KT 10SM CLR 20/05 A3013 RMK AO1
KPVF 020855Z AUTO 34006KT 10SM CLR 20/03 A3013 RMK AO1
KPVF 020835Z AUTO 33004KT 10SM CLR 22/04 A3013 RMK AO1
KPVF 020815Z AUTO 32004KT 10SM CLR 23/02 A3013 RMK AO1
KPVF 020755Z AUTO 32003KT 10SM CLR 23/00 A3013 RMK AO1
KPVF 020735Z AUTO 00000KT 10SM CLR 23/02 A3014 RMK AO1
KPVF 020715Z AUTO 00000KT 10SM CLR 23/03 A3014 RMK AO1
KPVF 020655Z AUTO 00000KT 10SM CLR 22/04 A3014 RMK AO1
KPVF 020635Z AUTO 00000KT 10SM CLR 22/04 A3014 RMK AO1
KPVF 020615Z AUTO 19003KT 10SM CLR 22/05 A3014 RMK AO1
KPVF 020555Z AUTO 20003KT 10SM CLR 22/05 A3014 RMK AO1
KPVF 020535Z AUTO 20003KT 10SM CLR 22/05 A3014 RMK AO1
KPVF 020515Z AUTO 20004KT 10SM CLR 22/06 A3014 RMK AO1
KPVF 020455Z AUTO 19004KT 10SM CLR 23/06 A3014 RMK AO1
KPVF 020435Z AUTO 20004KT 10SM CLR 23/06 A3014 RMK AO1
KPVF 020415Z AUTO 23004KT 10SM CLR 23/06 A3013 RMK AO1
KPVF 020355Z AUTO 23004KT 10SM CLR 24/07 A3013 RMK AO1
KPVF 020335Z AUTO 22005KT 10SM CLR 25/07 A3013 RMK AO1
KPVF 020315Z AUTO 22005KT 10SM CLR 26/07 A3012 RMK AO1
KPVF 020255Z AUTO 22005KT 10SM CLR 28/07 A3012 RMK AO1
KPVF 020235Z AUTO 22004KT 10SM CLR 29/06 A3011 RMK AO1
KPVF 020215Z AUTO 23005KT 10SM CLR 30/05 A3011 RMK AO1
KPVF 020155Z AUTO 24005KT 10SM CLR 32/05 A3011 RMK AO1
KPVF 020135Z AUTO 26005KT 10SM CLR 32/05 A3010 RMK AO1
KPVF 020115Z AUTO 22005KT 10SM CLR 33/05 A3010 RMK AO1
KPVF 020055Z AUTO 23003KT 10SM CLR 33/05 A3011 RMK AO1
KPVF 020035Z AUTO 24004KT 10SM CLR 33/05 A3011 RMK AO1
KPVF 020015Z AUTO 28007KT 190V300 10SM CLR 34/05 A3011 RMK AO1
KPVF 012355Z AUTO 25004KT 10SM CLR 34/05 A3011 RMK AO1
KPVF 012335Z AUTO 27007KT 10SM CLR 34/04 A3011 RMK AO1
KPVF 012315Z AUTO 24005KT 10SM CLR 34/04 A3011 RMK AO1
KPVF 012255Z AUTO 25006KT 210V270 10SM CLR 34/04 A3011 RMK AO1
KPVF 012235Z AUTO 25006KT 10SM CLR 34/04 A3011 RMK AO1
KPVF 012215Z AUTO 25005KT 10SM CLR 34/03 A3012 RMK AO1
KPVF 012155Z AUTO 23006KT 10SM CLR 34/03 A3012 RMK AO1
KPVF 012135Z AUTO 19005KT 10SM CLR 35/03 A3013 RMK AO1
KPVF 012115Z AUTO 21006KT 10SM CLR 34/03 A3013 RMK AO1
KPVF 012055Z AUTO 22005KT 10SM CLR 34/04 A3013 RMK AO1
KPVF 012035Z AUTO 26007KT 200V260 10SM CLR 33/03 A3014 RMK AO1
KPVF 012015Z AUTO 22006KT 10SM CLR 34/02 A3014 RMK AO1
KPVF 011955Z AUTO 20004KT 10SM CLR 34/03 A3014 RMK AO1
KPVF 011935Z AUTO 21004KT 10SM CLR 34/02 A3014 RMK AO1